createdAt,value
2022-09-28T00:03:04.682Z,10.98
2022-09-28T00:13:08.303Z,10.84
2022-09-28T00:23:09.962Z,10.74
2022-09-28T00:33:11.802Z,10.68
2022-09-28T00:43:20.946Z,10.61
2022-09-28T00:53:28.684Z,10.47
2022-09-28T01:03:30.818Z,10.50
2022-09-28T01:13:33.614Z,10.32
2022-09-28T01:23:46.745Z,10.55
2022-09-28T01:33:59.458Z,10.62
2022-09-28T01:44:06.009Z,10.60
2022-09-28T01:54:20.187Z,10.53
2022-09-28T02:04:35.270Z,10.51
2022-09-28T02:14:40.781Z,10.43
2022-09-28T02:25:11.234Z,10.50
2022-09-28T02:35:16.825Z,10.50
2022-09-28T02:45:29.933Z,10.48
2022-09-28T02:56:02.945Z,10.62
2022-09-28T03:06:11.377Z,10.50
2022-09-28T03:16:20.337Z,10.47
2022-09-28T03:26:23.951Z,10.28
2022-09-28T03:36:27.080Z,10.27
2022-09-28T03:46:28.795Z,10.40
2022-09-28T03:56:35.489Z,10.40
2022-09-28T04:06:37.430Z,10.19
2022-09-28T04:16:39.732Z,9.98
2022-09-28T04:26:45.773Z,9.99
2022-09-28T04:36:48.753Z,10.01
2022-09-28T04:46:50.678Z,9.98
2022-09-28T04:57:06.108Z,9.95
2022-09-28T05:07:07.874Z,9.87
2022-09-28T05:17:11.935Z,9.90
2022-09-28T05:27:41.819Z,9.86
2022-09-28T05:38:09.399Z,9.95
2022-09-28T05:48:11.316Z,10.02
2022-09-28T05:58:13.461Z,9.72
2022-09-28T06:08:15.427Z,9.97
2022-09-28T06:18:21.333Z,10.00
2022-09-28T06:28:39.958Z,9.84
2022-09-28T06:38:42.367Z,9.90
2022-09-28T06:48:52.532Z,9.85
2022-09-28T06:59:14.344Z,10.09
2022-09-28T07:09:31.839Z,10.17
2022-09-28T07:19:59.949Z,10.04
2022-09-28T07:30:05.656Z,10.13
2022-09-28T07:40:34.341Z,10.16
2022-09-28T07:50:39.233Z,10.22
2022-09-28T08:00:50.172Z,10.40
2022-09-28T08:10:53.283Z,10.54
2022-09-28T08:21:44.633Z,10.48
2022-09-28T08:31:48.505Z,10.81
2022-09-28T08:42:11.177Z,10.91
2022-09-28T08:52:37.719Z,11.12
2022-09-28T09:03:12.775Z,11.48
2022-09-28T09:13:20.379Z,12.14
2022-09-28T09:23:38.523Z,11.97
2022-09-28T09:33:49.383Z,12.55
2022-09-28T09:44:32.764Z,12.21
2022-09-28T09:55:30.032Z,12.57
2022-09-28T10:06:00.479Z,12.53
2022-09-28T10:16:02.820Z,12.52
2022-09-28T10:26:25.104Z,12.71
2022-09-28T10:36:28.509Z,12.75
2022-09-28T10:46:30.590Z,12.70
2022-09-28T10:56:37.536Z,12.83
2022-09-28T11:06:47.000Z,12.92
2022-09-28T11:16:48.924Z,12.78
2022-09-28T11:26:54.389Z,13.98
2022-09-28T11:37:16.535Z,13.95
2022-09-28T11:47:44.978Z,13.92
2022-09-28T11:58:01.495Z,13.82
2022-09-28T12:08:21.950Z,13.44
2022-09-28T12:18:53.146Z,13.61
2022-09-28T12:28:59.650Z,13.55
2022-09-28T12:39:27.092Z,13.71
2022-09-28T12:50:37.000Z,14.16
2022-09-28T13:00:18.653Z,14.42
2022-09-28T13:10:38.400Z,14.15
2022-09-28T13:21:10.438Z,14.22
2022-09-28T13:31:16.523Z,13.77
2022-09-28T13:41:40.518Z,13.82
2022-09-28T13:52:07.538Z,14.09
2022-09-28T14:02:41.942Z,14.22
2022-09-28T14:12:54.479Z,13.71
2022-09-28T14:23:37.988Z,13.66
2022-09-28T14:33:42.759Z,13.67
2022-09-28T14:43:44.875Z,13.81
2022-09-28T14:53:50.089Z,13.79
2022-09-28T15:03:56.663Z,13.92
2022-09-28T15:14:07.189Z,13.79
2022-09-28T15:24:31.891Z,13.89
2022-09-28T15:34:51.643Z,13.92
2022-09-28T15:45:32.053Z,14.00
2022-09-28T15:55:39.390Z,13.95
2022-09-28T16:05:42.974Z,13.92
2022-09-28T16:15:45.061Z,13.63
2022-09-28T16:25:56.747Z,13.38
2022-09-28T16:36:03.288Z,13.20
2022-09-28T16:46:09.573Z,12.78
2022-09-28T16:56:12.740Z,12.68
2022-09-28T17:06:16.954Z,12.66
2022-09-28T17:16:32.514Z,12.57
2022-09-28T17:26:39.270Z,12.76
2022-09-28T17:36:42.452Z,12.86
2022-09-28T17:46:47.658Z,12.82
2022-09-28T17:56:50.578Z,13.01
2022-09-28T18:06:52.457Z,12.76
2022-09-28T18:16:54.396Z,12.76
2022-09-28T18:26:57.365Z,12.71
2022-09-28T18:36:59.100Z,12.87
2022-09-28T18:47:02.515Z,12.80
2022-09-28T18:57:05.514Z,12.70
2022-09-28T19:07:08.454Z,12.60
2022-09-28T19:17:10.633Z,12.64
2022-09-28T19:27:12.395Z,12.63
2022-09-28T19:37:14.496Z,12.46
2022-09-28T19:47:17.482Z,12.63
2022-09-28T19:57:19.624Z,12.52
2022-09-28T20:07:21.447Z,12.47
2022-09-28T20:17:23.539Z,12.37
2022-09-28T20:27:27.053Z,12.46
2022-09-28T20:37:30.364Z,12.41
2022-09-28T20:47:32.086Z,12.35
2022-09-28T20:57:33.943Z,12.21
2022-09-28T21:07:35.481Z,12.14
2022-09-28T21:17:37.485Z,12.31
2022-09-28T21:27:46.021Z,12.19
2022-09-28T21:37:47.681Z,12.09
2022-09-28T21:47:53.007Z,12.06
2022-09-28T21:57:54.837Z,11.98
2022-09-28T22:07:56.619Z,11.86
2022-09-28T22:17:58.327Z,11.83
2022-09-28T22:28:00.113Z,11.76
2022-09-28T22:38:01.847Z,11.72
2022-09-28T22:48:03.829Z,11.55
2022-09-28T22:58:05.600Z,11.57
2022-09-28T23:08:08.168Z,11.49
2022-09-28T23:18:10.300Z,11.36
2022-09-28T23:28:12.159Z,11.38
2022-09-28T23:38:17.839Z,11.29
2022-09-28T23:48:19.572Z,11.11
2022-09-28T23:58:21.152Z,10.93
